Time;durP1;ratioP1;P1;durP2;ratioP2;P2;SDS_P1;SDS_P2;PMS_P1;PMS_P2;Temp;Humidity;BMP_temperature;BMP_pressure;BME280_temperature;BME280_humidity;BME280_pressure;Samples;Min_cycle;Max_cycle;Signal;HPM_P1;HPM_P2
2024/01/03 00:01:26;;;;;;;0.30;0.20;;;;;;;11.75;96.54;98097.41;5013776;28;20488;-49
2024/01/03 00:03:57;;;;;;;0.30;0.20;;;;;;;11.70;96.82;98105.72;5014148;28;20532;-49
2024/01/03 00:06:33;;;;;;;0.30;0.20;;;;;;;11.73;96.07;98110.00;5013895;28;20543;-48
2024/01/03 00:09:01;;;;;;;0.30;0.20;;;;;;;11.76;95.83;98105.31;5013875;28;20535;-48
2024/01/03 00:11:32;;;;;;;0.30;0.20;;;;;;;11.72;95.57;98108.28;5016208;28;20434;-49
2024/01/03 00:14:07;;;;;;;0.30;0.20;;;;;;;11.88;94.15;98113.44;5014038;28;20494;-49
2024/01/03 00:16:36;;;;;;;0.30;0.20;;;;;;;11.87;94.89;98115.25;5013819;28;20448;-48
2024/01/03 00:19:04;;;;;;;0.30;0.20;;;;;;;11.94;93.48;98119.22;5019629;28;20513;-48
2024/01/03 00:21:33;;;;;;;0.30;0.20;;;;;;;11.93;94.01;98125.50;5018332;28;20462;-49
2024/01/03 00:24:09;;;;;;;0.30;0.20;;;;;;;11.85;94.04;98131.34;5013391;28;20832;-48
2024/01/03 00:26:39;;;;;;;0.30;0.20;;;;;;;11.84;94.45;98128.78;5013387;28;20859;-48
2024/01/03 00:29:34;;;;;;;0.30;0.20;;;;;;;11.73;97.55;98128.63;5014025;28;20494;-47
2024/01/03 00:32:05;;;;;;;0.30;0.20;;;;;;;11.47;99.23;98133.88;5001145;28;20465;-48
2024/01/03 00:34:41;;;;;;;0.30;0.20;;;;;;;11.49;99.69;98144.41;5013162;28;20507;-49
2024/01/03 00:37:20;;;;;;;0.30;0.20;;;;;;;11.36;100.00;98149.69;5013280;28;20441;-48
2024/01/03 00:39:46;;;;;;;0.30;0.20;;;;;;;11.47;100.00;98149.00;5014128;28;20521;-49
2024/01/03 00:42:13;;;;;;;0.30;0.20;;;;;;;11.38;100.00;98144.31;5013215;28;20531;-48
2024/01/03 00:44:39;;;;;;;0.30;0.20;;;;;;;11.41;100.00;98150.28;5015741;28;20536;-48
2024/01/03 00:47:06;;;;;;;0.30;0.20;;;;;;;11.45;100.00;98153.56;5013351;28;20548;-49
2024/01/03 00:49:34;;;;;;;0.30;0.20;;;;;;;11.48;100.00;98161.34;5013143;28;20448;-49
2024/01/03 00:52:01;;;;;;;0.30;0.20;;;;;;;11.50;99.92;98151.44;5012789;28;20555;-48
2024/01/03 00:54:30;;;;;;;0.30;0.20;;;;;;;11.37;100.00;98171.84;5012350;28;20829;-49
2024/01/03 00:56:59;;;;;;;0.30;0.20;;;;;;;11.42;99.64;98175.06;5012945;28;20941;-49
2024/01/03 00:59:26;;;;;;;0.30;0.20;;;;;;;11.38;98.76;98179.75;5012716;28;20840;-48
2024/01/03 01:01:54;;;;;;;0.30;0.20;;;;;;;11.48;98.66;98177.31;5009758;28;21005;-49
2024/01/03 01:04:21;;;;;;;0.30;0.20;;;;;;;11.48;97.95;98179.97;5012991;28;20457;-49
2024/01/03 01:06:47;;;;;;;0.30;0.20;;;;;;;11.51;98.21;98175.31;5012959;28;20545;-48
2024/01/03 01:09:14;;;;;;;0.30;0.20;;;;;;;11.54;98.23;98187.56;5012707;28;20455;-48
2024/01/03 01:11:40;;;;;;;0.30;0.20;;;;;;;11.47;98.83;98189.75;5012559;28;20448;-49
2024/01/03 01:14:07;;;;;;;0.30;0.20;;;;;;;11.40;99.06;98183.16;5012601;28;20449;-49
2024/01/03 01:16:33;;;;;;;0.30;0.20;;;;;;;11.30;99.68;98189.16;5014019;28;20945;-48
2024/01/03 01:19:00;;;;;;;0.30;0.20;;;;;;;11.25;99.62;98195.66;5012522;28;20488;-49
2024/01/03 01:21:27;;;;;;;0.30;0.20;;;;;;;11.22;98.88;98185.19;5012453;28;20531;-48
2024/01/03 01:23:53;;;;;;;0.30;0.20;;;;;;;11.23;98.71;98188.69;5012342;28;20978;-49
2024/01/03 01:26:20;;;;;;;0.30;0.20;;;;;;;11.28;98.84;98203.41;5012416;28;20476;-48
2024/01/03 01:28:47;;;;;;;0.30;0.20;;;;;;;11.24;98.67;98193.94;5012419;28;20453;-48
2024/01/03 01:31:13;;;;;;;0.30;0.20;;;;;;;11.25;97.92;98197.44;5012469;28;20448;-48
2024/01/03 01:33:39;;;;;;;0.30;0.20;;;;;;;11.32;98.10;98196.09;5012421;28;20512;-49
2024/01/03 01:36:06;;;;;;;0.30;0.20;;;;;;;11.31;97.87;98196.19;5012387;28;20464;-48
2024/01/03 01:38:33;;;;;;;0.30;0.20;;;;;;;11.29;98.38;98193.63;5014812;28;20804;-48
2024/01/03 01:40:59;;;;;;;0.30;0.20;;;;;;;11.27;98.33;98188.41;5012044;28;20474;-50
2024/01/03 01:43:25;;;;;;;0.30;0.20;;;;;;;11.34;98.11;98196.84;5012423;28;20478;-50
2024/01/03 01:45:52;;;;;;;0.30;0.20;;;;;;;11.32;98.54;98196.09;5019850;28;20456;-50
2024/01/03 01:48:19;;;;;;;0.30;0.20;;;;;;;11.39;97.68;98193.88;5012303;28;20452;-48
2024/01/03 01:50:46;;;;;;;0.30;0.20;;;;;;;11.23;98.76;98194.00;5011879;28;20826;-49
2024/01/03 01:53:13;;;;;;;0.30;0.20;;;;;;;11.32;98.40;98197.88;5012078;28;20828;-48
2024/01/03 01:55:40;;;;;;;0.30;0.20;;;;;;;11.30;97.51;98197.16;5011873;28;20483;-49
2024/01/03 01:58:08;;;;;;;0.30;0.20;;;;;;;11.26;97.86;98197.34;5012249;28;20455;-49
2024/01/03 02:00:37;;;;;;;0.30;0.20;;;;;;;11.31;97.87;98196.19;5018403;28;20511;-49
2024/01/03 02:03:04;;;;;;;0.30;0.20;;;;;;;11.30;97.13;98197.16;5004055;28;20828;-48
2024/01/03 02:05:30;;;;;;;0.30;0.20;;;;;;;11.31;97.27;98206.81;5011731;28;20543;-49
2024/01/03 02:07:58;;;;;;;0.30;0.20;;;;;;;11.39;96.94;98199.22;5011941;28;20463;-48
2024/01/03 02:10:25;;;;;;;0.30;0.20;;;;;;;11.54;96.28;98199.06;5011777;28;20427;-48
2024/01/03 02:12:51;;;;;;;0.30;0.20;;;;;;;11.43;96.62;98206.03;5012094;28;20473;-49
2024/01/03 02:15:18;;;;;;;0.30;0.20;;;;;;;11.42;96.86;98205.19;5010541;28;20480;-49
2024/01/03 02:17:46;;;;;;;0.30;0.20;;;;;;;11.41;95.75;98202.63;5011895;28;20459;-49
2024/01/03 02:20:13;;;;;;;0.30;0.20;;;;;;;11.39;95.87;98210.69;5017756;28;20426;-49
2024/01/03 02:22:40;;;;;;;0.30;0.20;;;;;;;11.48;95.78;98214.56;5011463;28;20491;-49
2024/01/03 02:25:10;;;;;;;0.30;0.20;;;;;;;11.49;95.50;98225.09;5011642;28;20891;-50
2024/01/03 02:27:38;;;;;;;0.30;0.20;;;;;;;11.41;95.11;98219.44;5013073;28;20455;-49
2024/01/03 02:30:05;;;;;;;0.30;0.20;;;;;;;11.43;95.44;98216.66;5012092;28;20452;-49
2024/01/03 02:32:32;;;;;;;0.30;0.20;;;;;;;11.33;95.99;98228.84;5010799;28;20464;-49
2024/01/03 02:34:59;;;;;;;0.30;0.20;;;;;;;11.39;96.03;98223.16;5011678;28;20423;-50
2024/01/03 02:37:26;;;;;;;0.30;0.20;;;;;;;11.32;96.46;98219.16;5011502;28;20459;-50
2024/01/03 02:39:52;;;;;;;0.30;0.20;;;;;;;11.20;97.08;98229.63;5011966;28;20448;-50
2024/01/03 02:42:19;;;;;;;0.30;0.20;;;;;;;11.20;97.42;98219.00;5011777;28;20638;-47
2024/01/03 02:44:45;;;;;;;0.30;0.20;;;;;;;11.25;97.08;98224.03;5011651;28;20452;-48
2024/01/03 02:47:12;;;;;;;0.30;0.20;;;;;;;11.20;97.59;98218.16;5011605;28;20857;-49
2024/01/03 02:49:38;;;;;;;0.30;0.20;;;;;;;11.18;97.59;98212.94;5011302;28;20963;-48
2024/01/03 02:52:05;;;;;;;0.30;0.20;;;;;;;11.03;98.22;98223.69;5011621;28;20495;-49
2024/01/03 02:54:31;;;;;;;0.30;0.20;;;;;;;10.98;98.37;98227.53;5011228;28;20927;-49
2024/01/03 02:56:58;;;;;;;0.30;0.20;;;;;;;11.00;98.23;98221.25;5011621;28;20802;-48
2024/01/03 02:59:25;;;;;;;0.30;0.20;;;;;;;11.06;97.69;98223.50;5011537;28;20542;-48
2024/01/03 03:01:52;;;;;;;0.30;0.20;;;;;;;11.10;97.94;98219.69;5003618;28;20552;-49
2024/01/03 03:04:18;;;;;;;0.30;0.20;;;;;;;10.97;97.82;98228.47;5010453;28;20850;-49
2024/01/03 03:06:45;;;;;;;0.30;0.20;;;;;;;11.04;97.07;98226.25;5011439;28;20457;-50
2024/01/03 03:09:12;;;;;;;0.30;0.20;;;;;;;11.09;96.42;98220.63;4998230;28;20799;-50
2024/01/03 03:11:42;;;;;;;0.30;0.20;;;;;;;11.07;95.39;98227.88;5011558;28;20441;-49
2024/01/03 03:14:10;;;;;;;0.30;0.20;;;;;;;11.14;95.97;98229.19;5011389;28;20460;-49
2024/01/03 03:16:36;;;;;;;0.30;0.20;;;;;;;11.14;95.65;98237.19;5012961;28;20452;-49
2024/01/03 03:19:03;;;;;;;0.30;0.20;;;;;;;11.11;96.15;98235.56;5019166;28;20437;-49
2024/01/03 03:21:30;;;;;;;0.30;0.20;;;;;;;11.14;96.04;98223.88;5014702;28;20495;-50
2024/01/03 03:23:57;;;;;;;0.30;0.20;;;;;;;11.17;95.35;98226.34;5014818;28;20511;-48
2024/01/03 03:26:23;;;;;;;0.30;0.20;;;;;;;11.08;95.76;98222.44;5014778;28;20463;-48
2024/01/03 03:28:50;;;;;;;0.30;0.20;;;;;;;11.03;95.17;98231.69;5022607;28;20452;-49
2024/01/03 03:31:16;;;;;;;0.30;0.20;;;;;;;11.03;95.25;98226.38;5019371;28;20946;-49
2024/01/03 03:33:43;;;;;;;0.30;0.20;;;;;;;11.04;95.77;98222.75;5014333;28;20563;-49
2024/01/03 03:36:13;;;;;;;0.30;0.20;;;;;;;11.09;95.67;98232.13;5014662;28;20456;-49
2024/01/03 03:38:40;;;;;;;0.30;0.20;;;;;;;10.98;95.62;98229.31;5014492;28;20897;-49
2024/01/03 03:41:11;;;;;;;0.30;0.20;;;;;;;11.07;95.47;98222.53;5014450;28;20457;-49
2024/01/03 03:43:39;;;;;;;0.30;0.20;;;;;;;10.96;95.72;98231.19;5014462;28;20468;-49
2024/01/03 03:46:06;;;;;;;0.30;0.20;;;;;;;11.10;96.48;98225.00;5014200;28;20532;-50
2024/01/03 03:48:33;;;;;;;0.30;0.20;;;;;;;11.05;96.29;98227.97;5014331;28;20485;-49
2024/01/03 03:51:01;;;;;;;0.30;0.20;;;;;;;11.07;96.53;98233.19;5024867;28;20456;-49
2024/01/03 03:53:27;;;;;;;0.30;0.20;;;;;;;11.03;96.57;98237.00;5013909;28;20476;-50
2024/01/03 03:55:54;;;;;;;0.30;0.20;;;;;;;10.97;97.16;98233.78;5017639;28;20503;-49
2024/01/03 03:58:20;;;;;;;0.30;0.20;;;;;;;10.96;96.97;98232.09;5014184;28;20514;-50
2024/01/03 04:00:47;;;;;;;0.30;0.20;;;;;;;11.00;96.83;98245.16;5013985;28;20548;-50
2024/01/03 04:03:13;;;;;;;0.30;0.20;;;;;;;11.07;96.62;98230.53;5006544;28;20496;-48
2024/01/03 04:05:40;;;;;;;0.30;0.20;;;;;;;11.07;96.42;98228.72;5013840;28;20456;-50
2024/01/03 04:08:06;;;;;;;0.30;0.20;;;;;;;11.11;95.86;98232.06;5014556;28;20453;-48
2024/01/03 04:10:33;;;;;;;0.30;0.20;;;;;;;11.14;96.07;98223.88;5014035;28;20458;-49
2024/01/03 04:13:00;;;;;;;0.30;0.20;;;;;;;11.13;95.88;98249.63;5013892;28;20507;-50
2024/01/03 04:15:26;;;;;;;0.30;0.20;;;;;;;11.08;96.27;98232.22;5013993;28;20456;-49
2024/01/03 04:17:56;;;;;;;0.40;0.30;;;;;;;11.10;96.02;98230.31;5025552;28;20455;-49
2024/01/03 04:20:23;;;;;;;0.30;0.20;;;;;;;11.08;96.36;98232.22;5022501;28;20458;-48
2024/01/03 04:22:49;;;;;;;0.30;0.20;;;;;;;11.20;95.39;98229.63;5017223;28;20870;-48
2024/01/03 04:25:16;;;;;;;0.30;0.20;;;;;;;11.08;95.92;98246.38;5013525;28;20884;-48
2024/01/03 04:27:43;;;;;;;0.30;0.20;;;;;;;11.35;94.59;98240.25;5013703;28;20431;-48
2024/01/03 04:30:10;;;;;;;0.30;0.20;;;;;;;11.46;94.30;98253.72;5013937;28;20933;-50
2024/01/03 04:32:36;;;;;;;0.30;0.20;;;;;;;11.40;93.90;98254.13;5013711;28;20464;-49
2024/01/03 04:35:04;;;;;;;0.30;0.20;;;;;;;11.44;93.81;98245.84;5013807;28;20818;-50
2024/01/03 04:37:32;;;;;;;0.30;0.20;;;;;;;11.51;93.68;98241.84;5013980;28;21003;-49
2024/01/03 04:39:58;;;;;;;0.30;0.20;;;;;;;11.51;93.14;98239.16;5000734;28;20428;-49
2024/01/03 04:42:25;;;;;;;0.30;0.20;;;;;;;11.62;93.35;98242.91;5013135;28;20522;-51
2024/01/03 04:44:52;;;;;;;0.30;0.20;;;;;;;11.66;92.85;98244.44;5011584;28;20886;-49
2024/01/03 04:47:19;;;;;;;0.30;0.20;;;;;;;11.65;92.40;98242.69;5007242;28;20511;-50
2024/01/03 04:49:45;;;;;;;0.30;0.20;;;;;;;11.51;92.68;98236.50;5013677;28;20507;-48
2024/01/03 04:52:12;;;;;;;0.30;0.20;;;;;;;11.50;92.70;98240.09;5012974;28;20451;-49
2024/01/03 04:54:39;;;;;;;0.30;0.20;;;;;;;11.62;92.09;98249.09;5012759;28;20503;-49
2024/01/03 04:57:05;;;;;;;0.30;0.20;;;;;;;11.54;92.37;98248.75;5012684;28;20484;-49
2024/01/03 04:59:32;;;;;;;0.30;0.20;;;;;;;11.58;92.23;98258.22;5012896;28;20957;-50
2024/01/03 05:01:58;;;;;;;0.30;0.20;;;;;;;11.57;92.00;98257.38;5004577;28;20497;-49
2024/01/03 05:04:25;;;;;;;0.30;0.20;;;;;;;11.60;91.83;98260.78;5013072;28;20427;-50
2024/01/03 05:06:51;;;;;;;0.30;0.20;;;;;;;11.56;91.67;98258.34;5012611;28;20456;-49
2024/01/03 05:09:18;;;;;;;0.30;0.20;;;;;;;11.61;92.10;98257.16;5012597;28;20456;-49
2024/01/03 05:11:44;;;;;;;0.30;0.20;;;;;;;11.57;91.69;98268.03;5012270;28;20997;-49
2024/01/03 05:14:11;;;;;;;0.30;0.20;;;;;;;11.71;91.21;98261.81;5012825;28;20474;-48
2024/01/03 05:16:37;;;;;;;0.30;0.20;;;;;;;11.66;91.70;98258.59;5012689;28;20555;-49
2024/01/03 05:19:04;;;;;;;0.30;0.20;;;;;;;11.60;91.30;98260.78;5012575;28;20459;-49
2024/01/03 05:21:30;;;;;;;0.30;0.20;;;;;;;11.83;90.76;98270.81;5012245;28;20427;-48
2024/01/03 05:23:57;;;;;;;0.30;0.20;;;;;;;11.80;90.75;98268.38;5012712;28;20484;-48
2024/01/03 05:26:24;;;;;;;0.30;0.20;;;;;;;11.62;90.72;98270.38;5012727;28;20449;-47
2024/01/03 05:28:50;;;;;;;0.30;0.20;;;;;;;11.73;90.85;98261.69;5013250;28;20448;-48
2024/01/03 05:31:17;;;;;;;0.30;0.20;;;;;;;11.88;90.69;98266.03;5012854;28;21077;-49
2024/01/03 05:33:43;;;;;;;0.30;0.20;;;;;;;11.77;91.01;98257.88;5012731;28;21034;-47
2024/01/03 05:36:10;;;;;;;0.30;0.20;;;;;;;11.77;91.13;98261.38;5012566;28;20452;-47
2024/01/03 05:38:36;;;;;;;0.30;0.20;;;;;;;11.88;90.94;98263.38;5011595;28;20488;-49
2024/01/03 05:41:04;;;;;;;0.30;0.20;;;;;;;11.71;90.89;98258.28;5012029;28;20802;-49
2024/01/03 05:43:34;;;;;;;0.30;0.20;;;;;;;11.85;91.13;98259.09;5012312;28;21040;-47
2024/01/03 05:46:01;;;;;;;0.30;0.20;;;;;;;11.85;91.25;98253.78;5012163;28;20457;-49
2024/01/03 05:48:27;;;;;;;0.30;0.20;;;;;;;11.84;91.13;98260.06;5012087;28;20419;-50
2024/01/03 05:50:54;;;;;;;0.30;0.20;;;;;;;11.76;91.00;98259.69;5011892;28;20453;-49
2024/01/03 05:53:20;;;;;;;0.30;0.20;;;;;;;11.66;91.56;98249.75;5011625;28;20982;-49
2024/01/03 05:55:47;;;;;;;0.30;0.20;;;;;;;11.66;91.68;98255.94;5012158;28;20460;-47
2024/01/03 05:58:14;;;;;;;0.30;0.20;;;;;;;11.68;91.43;98247.84;5012341;28;20431;-46
2024/01/03 06:00:40;;;;;;;0.30;0.20;;;;;;;11.73;91.71;98261.69;5012038;28;20476;-48
2024/01/03 06:03:07;;;;;;;0.30;0.20;;;;;;;11.77;90.52;98258.72;5012150;28;20500;-47
2024/01/03 06:05:33;;;;;;;0.30;0.20;;;;;;;11.80;91.16;98249.72;5012199;28;20448;-48
2024/01/03 06:08:00;;;;;;;0.30;0.20;;;;;;;11.77;91.06;98260.53;5011682;28;20460;-48
2024/01/03 06:10:27;;;;;;;0.30;0.20;;;;;;;11.54;91.01;98254.94;5011964;28;20455;-50
2024/01/03 06:12:53;;;;;;;0.30;0.20;;;;;;;11.62;90.87;98251.75;5011656;28;20833;-49
2024/01/03 06:15:20;;;;;;;0.30;0.20;;;;;;;11.51;90.96;98257.78;5011628;28;20453;-49
2024/01/03 06:17:46;;;;;;;0.30;0.20;;;;;;;11.47;90.50;98239.44;5011680;28;20451;-49
2024/01/03 06:20:13;;;;;;;0.30;0.20;;;;;;;11.44;91.03;98250.28;5011536;28;20462;-49
2024/01/03 06:22:39;;;;;;;0.30;0.20;;;;;;;11.41;91.28;98246.03;5011580;28;21069;-49
2024/01/03 06:25:06;;;;;;;0.30;0.20;;;;;;;11.33;91.61;98252.78;5011993;28;20477;-49
2024/01/03 06:27:32;;;;;;;0.30;0.20;;;;;;;11.49;92.27;98237.53;5011996;28;20559;-48
2024/01/03 06:29:59;;;;;;;0.30;0.20;;;;;;;11.47;91.71;98240.31;5012163;28;20488;-48
2024/01/03 06:32:26;;;;;;;0.30;0.20;;;;;;;11.47;92.25;98252.75;5012034;28;20580;-48
2024/01/03 06:34:52;;;;;;;0.30;0.20;;;;;;;11.32;92.78;98246.63;5012326;28;20875;-49
2024/01/03 06:37:18;;;;;;;0.30;0.20;;;;;;;11.35;93.47;98259.72;5012159;28;20495;-49
2024/01/03 06:39:45;;;;;;;0.30;0.20;;;;;;;11.35;93.22;98261.53;5011505;28;20459;-49
2024/01/03 06:42:11;;;;;;;0.30;0.20;;;;;;;11.17;94.31;98255.59;5011525;28;20492;-47
2024/01/03 06:44:38;;;;;;;0.30;0.20;;;;;;;11.23;94.39;98252.53;5011488;28;20459;-49
2024/01/03 06:47:04;;;;;;;0.30;0.20;;;;;;;11.41;94.59;98253.16;5011442;28;20456;-50
2024/01/03 06:49:31;;;;;;;0.30;0.20;;;;;;;11.26;95.08;98257.66;5011226;28;20543;-49
2024/01/03 06:51:57;;;;;;;0.30;0.20;;;;;;;11.21;94.49;98259.75;5014993;28;21009;-50
2024/01/03 06:54:24;;;;;;;0.30;0.20;;;;;;;11.32;94.37;98273.22;5014999;28;20455;-49
2024/01/03 06:56:50;;;;;;;0.30;0.20;;;;;;;11.39;95.00;98263.91;5015428;28;20514;-50
2024/01/03 06:59:17;;;;;;;0.30;0.20;;;;;;;11.37;94.39;98260.47;5015214;28;20505;-49
2024/01/03 07:01:46;;;;;;;0.30;0.20;;;;;;;11.39;94.08;98249.75;5006748;28;20460;-50
2024/01/03 07:04:13;;;;;;;0.30;0.20;;;;;;;11.39;94.03;98247.09;5014075;28;20518;-49
2024/01/03 07:06:39;;;;;;;0.30;0.20;;;;;;;11.45;94.08;98241.34;5015253;28;20559;-50
2024/01/03 07:09:06;;;;;;;0.30;0.20;;;;;;;11.41;93.87;98261.13;5015011;28;20541;-50
2024/01/03 07:11:33;;;;;;;0.30;0.20;;;;;;;11.36;94.45;98257.91;5014983;28;20832;-50
2024/01/03 07:13:59;;;;;;;0.30;0.20;;;;;;;11.38;95.02;98258.69;5014781;28;20831;-52
2024/01/03 07:16:26;;;;;;;0.30;0.20;;;;;;;11.39;95.04;98261.25;5014869;28;20950;-51
2024/01/03 07:18:53;;;;;;;0.30;0.20;;;;;;;11.46;94.80;98251.91;5014708;28;20536;-50
2024/01/03 07:21:22;;;;;;;0.30;0.20;;;;;;;11.42;94.90;98266.38;5014925;28;20452;-51
2024/01/03 07:23:49;;;;;;;0.30;0.20;;;;;;;11.47;95.74;98263.38;5014539;28;20496;-50
2024/01/03 07:26:15;;;;;;;0.30;0.20;;;;;;;11.47;96.38;98266.06;5014548;28;20448;-51
2024/01/03 07:28:42;;;;;;;0.30;0.20;;;;;;;11.37;97.26;98279.09;5014616;28;20459;-50
2024/01/03 07:31:08;;;;;;;0.30;0.20;;;;;;;11.35;97.28;98280.13;5014127;28;20544;-51
2024/01/03 07:33:35;;;;;;;0.30;0.20;;;;;;;11.20;98.37;98279.31;5014697;28;20476;-51
2024/01/03 07:36:01;;;;;;;0.30;0.20;;;;;;;11.24;97.89;98283.50;5014566;28;20459;-51
2024/01/03 07:38:28;;;;;;;0.30;0.20;;;;;;;11.16;99.02;98277.81;5014305;28;20453;-52
2024/01/03 07:40:54;;;;;;;0.30;0.20;;;;;;;11.31;99.41;98286.63;5014196;28;20431;-52
2024/01/03 07:43:21;;;;;;;0.30;0.20;;;;;;;11.34;99.18;98273.97;5014472;28;20562;-50
2024/01/03 07:45:47;;;;;;;0.30;0.20;;;;;;;11.30;99.95;98279.59;5014109;28;20453;-51
2024/01/03 07:48:14;;;;;;;0.30;0.20;;;;;;;11.18;100.00;98284.72;5014465;28;20539;-51
2024/01/03 07:50:41;;;;;;;0.30;0.20;;;;;;;11.20;100.00;98285.47;5014046;28;20463;-52
2024/01/03 07:53:07;;;;;;;0.30;0.20;;;;;;;11.36;100.00;98292.47;5013849;28;20504;-52
2024/01/03 07:55:34;;;;;;;0.30;0.20;;;;;;;11.11;100.00;98285.22;5013853;28;20422;-50
2024/01/03 07:58:01;;;;;;;0.30;0.20;;;;;;;11.14;100.00;98285.03;5014046;28;20459;-50
2024/01/03 08:00:30;;;;;;;0.30;0.20;;;;;;;11.20;100.00;98271.34;5013745;28;21012;-51
2024/01/03 08:02:57;;;;;;;0.30;0.20;;;;;;;11.15;100.00;98260.16;5005750;28;20587;-51
2024/01/03 08:05:24;;;;;;;0.30;0.20;;;;;;;11.13;100.00;98262.06;5014067;28;20873;-50
2024/01/03 08:07:50;;;;;;;0.30;0.20;;;;;;;11.28;99.95;98274.38;5013772;28;20828;-50
2024/01/03 08:10:17;;;;;;;0.30;0.20;;;;;;;11.10;100.00;98270.19;5015237;28;20453;-50
2024/01/03 08:12:43;;;;;;;0.30;0.20;;;;;;;11.20;100.00;98268.69;5015140;28;20442;-51
2024/01/03 08:15:10;;;;;;;0.30;0.20;;;;;;;11.13;99.48;98267.38;5014029;28;20546;-51
2024/01/03 08:17:36;;;;;;;0.30;0.20;;;;;;;11.28;99.40;98269.06;5013993;28;20459;-51
2024/01/03 08:20:03;;;;;;;0.30;0.20;;;;;;;11.19;99.04;98264.31;5013696;28;20456;-51
2024/01/03 08:22:30;;;;;;;0.30;0.20;;;;;;;11.28;99.21;98258.41;5013634;28;20451;-51
2024/01/03 08:24:57;;;;;;;0.30;0.20;;;;;;;11.44;99.20;98261.78;5013511;28;20423;-51
2024/01/03 08:27:23;;;;;;;0.30;0.20;;;;;;;11.39;98.20;98263.06;5013483;28;20456;-52
2024/01/03 08:29:51;;;;;;;0.30;0.20;;;;;;;11.57;97.97;98257.38;5013501;28;20527;-51
2024/01/03 08:32:17;;;;;;;0.30;0.20;;;;;;;11.48;98.09;98259.78;5013504;28;20495;-50
2024/01/03 08:34:45;;;;;;;0.30;0.20;;;;;;;11.68;97.59;98262.00;5013380;28;20522;-51
2024/01/03 08:37:12;;;;;;;0.30;0.20;;;;;;;11.72;97.31;98257.31;5013260;28;20866;-51
2024/01/03 08:39:39;;;;;;;0.77;0.73;;;;;;;11.72;96.75;98260.84;5013094;28;20878;-51
2024/01/03 08:42:06;;;;;;;0.30;0.20;;;;;;;11.69;96.82;98262.84;5013080;28;20481;-52
2024/01/03 08:44:33;;;;;;;0.30;0.20;;;;;;;11.65;96.79;98259.56;5013206;28;20521;-53
2024/01/03 08:46:59;;;;;;;0.30;0.20;;;;;;;11.80;97.20;98255.06;5013319;28;20461;-52
2024/01/03 08:49:26;;;;;;;0.30;0.20;;;;;;;11.81;96.27;98272.72;5013158;28;20478;-50
2024/01/03 08:51:53;;;;;;;0.30;0.20;;;;;;;11.86;95.68;98276.78;5014083;28;20838;-53
2024/01/03 08:54:19;;;;;;;0.30;0.20;;;;;;;11.94;94.26;98273.63;5013162;28;20445;-52
2024/01/03 08:56:50;;;;;;;0.30;0.20;;;;;;;11.89;94.77;98266.88;5013096;28;20511;-53
2024/01/03 08:59:16;;;;;;;0.30;0.20;;;;;;;12.14;94.04;98270.47;5013482;28;20452;-54
2024/01/03 09:01:43;;;;;;;0.30;0.20;;;;;;;12.18;93.59;98267.59;5006862;28;20435;-53
2024/01/03 09:04:09;;;;;;;0.30;0.20;;;;;;;12.20;93.01;98265.69;5012346;28;21099;-53
2024/01/03 09:06:38;;;;;;;0.30;0.20;;;;;;;12.34;91.96;98270.94;5012110;28;20448;-53
2024/01/03 09:09:04;;;;;;;0.30;0.20;;;;;;;12.38;91.28;98275.09;5013041;28;20453;-53
2024/01/03 09:11:31;;;;;;;0.30;0.20;;;;;;;12.30;89.49;98270.28;5013238;28;20543;-53
2024/01/03 09:13:58;;;;;;;0.30;0.20;;;;;;;12.36;89.45;98279.69;5012387;28;20775;-53
2024/01/03 09:16:30;;;;;;;0.30;0.20;;;;;;;12.42;88.31;98295.25;5013448;28;20483;-53
2024/01/03 09:18:56;;;;;;;0.30;0.20;;;;;;;12.50;88.08;98294.72;5000660;28;20419;-55
2024/01/03 09:21:23;;;;;;;0.30;0.20;;;;;;;12.56;86.44;98287.16;5013024;28;20860;-54
2024/01/03 09:23:50;;;;;;;0.30;0.20;;;;;;;12.51;86.40;98293.75;5012562;28;20579;-52
2024/01/03 09:26:20;;;;;;;0.30;0.20;;;;;;;12.58;85.91;98298.56;5013086;28;20470;-53
2024/01/03 09:28:47;;;;;;;0.30;0.20;;;;;;;12.61;84.84;98302.81;5012926;28;20428;-53
2024/01/03 09:31:15;;;;;;;0.30;0.20;;;;;;;12.69;84.20;98305.81;5011304;28;21033;-53
2024/01/03 09:33:41;;;;;;;0.30;0.20;;;;;;;12.81;83.98;98299.63;5012808;28;20443;-53
2024/01/03 09:36:21;;;;;;;0.30;0.20;;;;;;;12.90;82.82;98308.81;5012670;28;20458;-52
2024/01/03 09:38:53;;;;;;;0.30;0.20;;;;;;;12.92;83.21;98312.22;5012768;28;20449;-53
2024/01/03 09:41:21;;;;;;;0.30;0.20;;;;;;;13.07;82.38;98308.47;5012461;28;20468;-53
2024/01/03 09:43:50;;;;;;;0.30;0.20;;;;;;;12.90;81.67;98315.00;5012391;28;20488;-53
2024/01/03 09:46:16;;;;;;;0.30;0.20;;;;;;;12.92;82.42;98313.09;5012580;28;20484;-53
2024/01/03 09:48:46;;;;;;;0.30;0.20;;;;;;;12.79;82.08;98306.03;5012350;28;20841;-54
2024/01/03 09:51:13;;;;;;;0.30;0.20;;;;;;;12.78;81.41;98315.00;5012712;28;20571;-55
2024/01/03 09:53:40;;;;;;;0.30;0.20;;;;;;;12.95;81.39;98318.19;5012093;28;20538;-53
2024/01/03 09:56:07;;;;;;;0.30;0.20;;;;;;;12.88;81.75;98326.72;5012390;28;20427;-53
2024/01/03 09:58:33;;;;;;;0.30;0.20;;;;;;;13.11;81.61;98328.63;5012341;28;20506;-53
2024/01/03 10:01:00;;;;;;;0.30;0.20;;;;;;;13.07;81.75;98320.97;5011451;28;20460;-54
2024/01/03 10:03:26;;;;;;;0.30;0.20;;;;;;;13.20;80.38;98325.38;5005611;28;20474;-54
2024/01/03 10:06:10;;;;;;;0.30;0.20;;;;;;;13.24;80.85;98320.66;5012256;28;20981;-54
2024/01/03 10:09:02;;;;;;;0.30;0.20;;;;;;;13.28;80.10;98330.13;5012253;28;20430;-52
2024/01/03 10:11:29;;;;;;;0.30;0.20;;;;;;;13.26;79.95;98308.06;5012242;28;20444;-53
2024/01/03 10:14:12;;;;;;;0.30;0.20;;;;;;;13.09;79.09;98319.88;5012299;28;20488;-53
2024/01/03 10:16:39;;;;;;;0.30;0.20;;;;;;;13.18;78.92;98313.94;5012103;28;20478;-53
2024/01/03 10:19:12;;;;;;;0.30;0.20;;;;;;;13.25;78.68;98331.22;5012588;28;20427;-53
2024/01/03 10:21:52;;;;;;;0.30;0.20;;;;;;;13.24;77.18;98323.31;5011935;28;20463;-53
2024/01/03 10:24:25;;;;;;;0.30;0.20;;;;;;;13.23;77.44;98330.47;5011904;28;20466;-53
2024/01/03 10:26:52;;;;;;;0.30;0.20;;;;;;;13.32;77.41;98327.16;5014537;28;20430;-54
2024/01/03 10:29:20;;;;;;;0.30;0.20;;;;;;;13.40;77.13;98331.06;5016182;28;20816;-53
2024/01/03 10:31:48;;;;;;;0.30;0.20;;;;;;;13.46;77.07;98328.84;5015963;28;20452;-54
2024/01/03 10:34:23;;;;;;;0.30;0.20;;;;;;;13.44;76.94;98330.78;5016016;28;20490;-54
2024/01/03 10:36:53;;;;;;;0.30;0.20;;;;;;;13.56;77.09;98319.19;5004361;28;20430;-52
2024/01/03 10:39:20;;;;;;;0.30;0.20;;;;;;;13.58;77.27;98335.13;5015821;28;20427;-53
2024/01/03 10:41:48;;;;;;;0.30;0.20;;;;;;;13.85;77.18;98332.25;5015844;28;20905;-53
2024/01/03 10:44:19;;;;;;;0.30;0.20;;;;;;;13.54;77.65;98321.13;5016064;28;20494;-53
2024/01/03 10:46:48;;;;;;;0.30;0.20;;;;;;;13.58;77.70;98325.28;5015767;28;20456;-53
2024/01/03 10:49:15;;;;;;;0.30;0.20;;;;;;;13.67;77.06;98323.75;5015567;28;20809;-52
2024/01/03 10:51:44;;;;;;;0.30;0.20;;;;;;;13.72;77.33;98326.97;5015622;28;20458;-53
2024/01/03 10:54:16;;;;;;;0.30;0.20;;;;;;;13.82;76.03;98325.28;5015337;28;20528;-52
2024/01/03 10:57:01;;;;;;;0.30;0.20;;;;;;;13.79;76.31;98338.88;5015481;28;20506;-53
2024/01/03 10:59:36;;;;;;;0.30;0.20;;;;;;;13.87;76.14;98333.00;5002850;28;20918;-52
2024/01/03 11:02:24;;;;;;;0.30;0.20;;;;;;;13.90;75.69;98330.94;5007546;28;20979;-53
2024/01/03 11:04:57;;;;;;;0.30;0.20;;;;;;;13.83;76.77;98318.13;5015310;28;20488;-52
2024/01/03 11:07:50;;;;;;;0.30;0.20;;;;;;;13.96;76.58;98320.75;5015243;28;20454;-53
2024/01/03 11:10:46;;;;;;;0.30;0.20;;;;;;;13.78;76.88;98334.50;5015379;28;20476;-53
2024/01/03 11:13:28;;;;;;;0.30;0.20;;;;;;;13.64;77.45;98340.00;5015193;28;20496;-52
2024/01/03 11:15:59;;;;;;;0.30;0.20;;;;;;;13.55;77.37;98340.66;5015420;28;20448;-53
2024/01/03 11:18:41;;;;;;;0.30;0.20;;;;;;;13.56;78.23;98345.88;5015641;28;20480;-53
2024/01/03 11:21:20;;;;;;;0.30;0.20;;;;;;;13.49;79.05;98349.13;5015641;28;20452;-53
2024/01/03 11:23:51;;;;;;;0.30;0.20;;;;;;;13.52;80.33;98343.53;5003172;28;20496;-53
2024/01/03 11:26:17;;;;;;;0.30;0.20;;;;;;;13.64;81.54;98346.19;5015015;28;20452;-53
2024/01/03 11:28:50;;;;;;;0.30;0.20;;;;;;;13.59;82.53;98353.69;5014863;28;20426;-53
2024/01/03 11:31:54;;;;;;;0.30;0.20;;;;;;;13.22;83.84;98350.13;5014896;28;20531;-53
2024/01/03 11:34:35;;;;;;;0.30;0.20;;;;;;;13.37;83.66;98345.50;5014821;28;20538;-53
2024/01/03 11:37:04;;;;;;;0.30;0.20;;;;;;;13.32;84.17;98340.50;5013861;28;20460;-54
2024/01/03 11:39:35;;;;;;;0.30;0.20;;;;;;;13.24;84.91;98339.31;5014593;28;20423;-54